createdAt,value
2019-06-26T00:01:32.269Z,99.90
2019-06-26T00:04:03.655Z,99.90
2019-06-26T00:06:34.994Z,99.90
2019-06-26T00:09:09.119Z,99.90
2019-06-26T00:11:40.680Z,99.90
2019-06-26T00:14:12.108Z,99.90
2019-06-26T00:16:43.919Z,99.90
2019-06-26T00:19:15.313Z,99.90
2019-06-26T00:21:47.084Z,99.90
2019-06-26T00:24:18.383Z,99.90
2019-06-26T00:26:49.732Z,99.90
2019-06-26T00:29:21.273Z,99.90
2019-06-26T00:31:53.093Z,99.90
2019-06-26T00:34:24.320Z,99.90
2019-06-26T00:36:55.623Z,99.90
2019-06-26T00:39:27.425Z,99.90
2019-06-26T00:41:58.828Z,99.90
2019-06-26T00:44:30.120Z,99.90
2019-06-26T00:47:01.450Z,99.90
2019-06-26T00:49:32.973Z,99.90
2019-06-26T00:52:04.296Z,99.90
2019-06-26T00:54:35.862Z,99.90
2019-06-26T00:57:07.272Z,99.90
2019-06-26T00:59:38.832Z,99.90
2019-06-26T01:02:10.456Z,99.90
2019-06-26T01:04:44.165Z,99.90
2019-06-26T01:07:15.597Z,99.90
2019-06-26T01:09:47.017Z,99.90
2019-06-26T01:12:18.748Z,99.90
2019-06-26T01:14:50.375Z,99.90
2019-06-26T01:17:21.668Z,99.90
2019-06-26T01:19:52.952Z,99.90
2019-06-26T01:22:24.918Z,99.90
2019-06-26T01:24:57.063Z,99.90
2019-06-26T01:27:29.137Z,99.90
2019-06-26T01:30:00.642Z,99.90
2019-06-26T01:32:31.932Z,99.90
2019-06-26T01:35:03.388Z,99.90
2019-06-26T01:37:34.767Z,99.90
2019-06-26T01:40:06.616Z,99.90
2019-06-26T01:42:37.941Z,99.90
2019-06-26T01:45:10.196Z,99.90
2019-06-26T01:47:41.463Z,99.90
2019-06-26T01:50:13.411Z,99.90
2019-06-26T01:52:44.783Z,99.90
2019-06-26T01:55:16.456Z,99.90
2019-06-26T01:57:47.766Z,99.90
2019-06-26T02:00:20.018Z,99.90
2019-06-26T02:02:51.371Z,99.90
2019-06-26T02:05:22.646Z,99.90
2019-06-26T02:07:54.463Z,99.90
2019-06-26T02:10:25.870Z,99.90
2019-06-26T02:12:57.175Z,99.90
2019-06-26T02:15:28.783Z,99.90
2019-06-26T02:18:00.381Z,99.90
2019-06-26T02:20:31.620Z,99.90
2019-06-26T02:23:02.834Z,99.90
2019-06-26T02:25:34.247Z,99.90
2019-06-26T02:28:05.909Z,99.90
2019-06-26T02:30:37.232Z,99.90
2019-06-26T02:33:08.609Z,99.90
2019-06-26T02:35:39.865Z,99.90
2019-06-26T02:38:11.451Z,99.90
2019-06-26T02:40:42.887Z,99.90
2019-06-26T02:43:14.236Z,99.90
2019-06-26T02:45:45.585Z,99.90
2019-06-26T02:48:17.041Z,99.90
2019-06-26T02:50:48.340Z,99.90
2019-06-26T02:53:19.728Z,99.90
2019-06-26T02:55:51.486Z,99.90
2019-06-26T02:58:22.800Z,99.90
2019-06-26T03:00:54.188Z,99.90
2019-06-26T03:03:25.580Z,99.90
2019-06-26T03:05:56.939Z,99.90
2019-06-26T03:08:28.215Z,99.90
2019-06-26T03:10:59.996Z,99.90
2019-06-26T03:13:31.670Z,99.90
2019-06-26T03:16:03.249Z,99.90
2019-06-26T03:18:35.030Z,99.90
2019-06-26T03:21:06.407Z,99.90
2019-06-26T03:23:37.703Z,99.90
2019-06-26T03:26:09.315Z,99.90
2019-06-26T03:28:40.647Z,99.90
2019-06-26T03:31:12.023Z,99.90
2019-06-26T03:33:44.673Z,99.90
2019-06-26T03:36:15.958Z,99.90
2019-06-26T03:38:47.291Z,99.90
2019-06-26T03:41:18.607Z,99.90
2019-06-26T03:43:50.290Z,99.90
2019-06-26T03:46:21.650Z,99.90
2019-06-26T03:48:53.700Z,99.90
2019-06-26T03:51:25.360Z,99.90
2019-06-26T03:53:56.681Z,99.90
2019-06-26T03:56:28.129Z,99.90
2019-06-26T03:58:59.342Z,99.90
2019-06-26T04:01:30.623Z,99.90
2019-06-26T04:04:02.003Z,99.90
2019-06-26T04:06:33.279Z,99.90
2019-06-26T04:09:05.443Z,99.90
2019-06-26T04:11:36.734Z,99.90
2019-06-26T04:14:10.149Z,99.90
2019-06-26T04:16:44.455Z,99.90
2019-06-26T04:19:15.797Z,99.90
2019-06-26T04:21:47.117Z,99.90
2019-06-26T04:24:18.784Z,99.90
2019-06-26T04:26:50.671Z,99.90
2019-06-26T04:29:22.363Z,99.90
2019-06-26T04:31:53.694Z,99.90
2019-06-26T04:34:25.165Z,99.90
2019-06-26T04:37:14.300Z,99.90
2019-06-26T04:40:03.705Z,99.90
2019-06-26T04:42:52.860Z,99.90
2019-06-26T04:45:57.093Z,99.90
2019-06-26T04:48:33.446Z,99.90
2019-06-26T04:51:22.923Z,99.90
2019-06-26T04:54:12.314Z,99.90
2019-06-26T04:57:01.748Z,99.90
2019-06-26T04:59:51.324Z,99.90
2019-06-26T05:02:40.865Z,99.90
2019-06-26T05:05:39.519Z,99.90
2019-06-26T05:08:21.883Z,99.90
2019-06-26T05:11:12.769Z,99.90
2019-06-26T05:14:02.702Z,99.90
2019-06-26T05:16:51.981Z,99.90
2019-06-26T05:19:41.146Z,99.90
2019-06-26T05:22:30.431Z,99.90
2019-06-26T05:25:20.060Z,99.90
2019-06-26T05:28:09.222Z,99.90
2019-06-26T05:30:58.631Z,99.90
2019-06-26T05:33:47.936Z,99.90
2019-06-26T05:36:36.816Z,99.90
2019-06-26T05:39:45.195Z,99.90
2019-06-26T05:42:34.160Z,99.90
2019-06-26T05:45:23.856Z,99.90
2019-06-26T05:48:12.589Z,99.90
2019-06-26T05:51:02.103Z,99.90
2019-06-26T05:53:51.473Z,99.90
2019-06-26T05:56:40.897Z,99.90
2019-06-26T05:59:30.147Z,99.90
2019-06-26T06:02:19.500Z,99.90
2019-06-26T06:05:09.524Z,99.10
2019-06-26T06:07:58.673Z,99.10
2019-06-26T06:10:48.205Z,98.70
2019-06-26T06:13:37.270Z,97.80
2019-06-26T06:16:26.473Z,98.70
2019-06-26T06:19:15.728Z,98.00
2019-06-26T06:22:04.896Z,96.60
2019-06-26T06:24:54.363Z,95.70
2019-06-26T06:27:43.167Z,95.50
2019-06-26T06:30:32.419Z,95.40
2019-06-26T06:33:21.943Z,95.40
2019-06-26T06:36:11.566Z,95.70
2019-06-26T06:39:01.081Z,94.90
2019-06-26T06:41:50.451Z,93.90
2019-06-26T06:44:39.810Z,95.10
2019-06-26T06:47:28.562Z,95.50
2019-06-26T06:50:18.426Z,94.90
2019-06-26T06:53:08.102Z,94.50
2019-06-26T06:55:57.157Z,93.50
2019-06-26T06:58:46.619Z,92.70
2019-06-26T07:01:36.067Z,92.20
2019-06-26T07:04:25.210Z,92.00
2019-06-26T07:07:13.986Z,91.70
2019-06-26T07:10:02.995Z,92.00
2019-06-26T07:12:56.086Z,91.00
2019-06-26T07:15:45.533Z,90.40
2019-06-26T07:18:34.751Z,90.50
2019-06-26T07:21:24.048Z,90.30
2019-06-26T07:24:13.669Z,90.60
2019-06-26T07:27:03.810Z,90.10
2019-06-26T07:29:52.870Z,88.80
2019-06-26T07:32:41.751Z,89.10
2019-06-26T07:35:30.717Z,88.70
2019-06-26T07:38:19.932Z,89.20
2019-06-26T07:41:08.518Z,90.00
2019-06-26T07:43:57.530Z,90.40
2019-06-26T07:46:46.679Z,90.50
2019-06-26T07:49:35.779Z,90.20
2019-06-26T07:52:24.998Z,88.40
2019-06-26T07:55:15.095Z,88.90
2019-06-26T07:58:04.294Z,88.60
2019-06-26T08:00:53.771Z,88.00
2019-06-26T08:03:42.841Z,84.20
2019-06-26T08:06:31.812Z,83.00
2019-06-26T08:09:21.560Z,83.50
2019-06-26T08:12:11.125Z,82.10
2019-06-26T08:15:00.924Z,81.00
2019-06-26T08:18:00.508Z,78.60
2019-06-26T08:21:00.531Z,78.10
2019-06-26T08:23:32.083Z,80.20
2019-06-26T08:26:21.769Z,79.80
2019-06-26T08:29:10.810Z,78.10
2019-06-26T08:32:00.210Z,75.90
2019-06-26T08:34:49.545Z,76.00
2019-06-26T08:37:38.763Z,75.70
2019-06-26T08:40:28.325Z,75.40
2019-06-26T08:43:17.405Z,76.50
2019-06-26T08:46:06.955Z,75.00
2019-06-26T08:48:56.680Z,76.10
2019-06-26T08:51:46.033Z,74.70
2019-06-26T08:54:35.314Z,73.20
2019-06-26T08:57:24.634Z,74.10
2019-06-26T09:00:15.396Z,75.50
2019-06-26T09:03:05.026Z,75.00
2019-06-26T09:05:54.695Z,72.10
2019-06-26T09:08:43.760Z,72.90
2019-06-26T09:11:32.920Z,72.20
2019-06-26T09:14:22.065Z,69.80
2019-06-26T09:17:11.422Z,68.50
2019-06-26T09:20:00.227Z,69.90
2019-06-26T09:22:49.356Z,70.60
2019-06-26T09:25:38.444Z,70.90
2019-06-26T09:28:28.221Z,72.10
2019-06-26T09:31:18.624Z,72.40
2019-06-26T09:34:07.758Z,71.10
2019-06-26T09:36:56.728Z,70.50
2019-06-26T09:39:45.335Z,69.40
2019-06-26T09:42:34.862Z,68.60
2019-06-26T09:45:24.441Z,69.10
2019-06-26T09:48:13.919Z,70.90
2019-06-26T09:51:02.808Z,69.40
2019-06-26T09:53:51.922Z,69.40
2019-06-26T09:56:40.843Z,67.60
2019-06-26T09:59:29.622Z,67.90
2019-06-26T10:02:19.113Z,66.50
2019-06-26T10:05:08.376Z,66.70
2019-06-26T10:07:57.857Z,64.40
2019-06-26T10:10:47.224Z,65.80
2019-06-26T10:13:36.432Z,69.60
2019-06-26T10:16:25.810Z,70.20
2019-06-26T10:19:15.210Z,69.20
2019-06-26T10:22:04.598Z,68.60
2019-06-26T10:24:54.252Z,69.20
2019-06-26T10:27:43.572Z,70.00
2019-06-26T10:30:33.092Z,69.20
2019-06-26T10:33:22.176Z,68.00
2019-06-26T10:36:11.492Z,67.70
2019-06-26T10:39:00.824Z,68.90
2019-06-26T10:41:53.896Z,68.30
2019-06-26T10:44:41.268Z,66.90
2019-06-26T10:47:30.676Z,67.30
2019-06-26T10:50:20.503Z,67.10
2019-06-26T10:53:09.983Z,68.80
2019-06-26T10:55:58.895Z,67.80
2019-06-26T10:58:48.606Z,65.00
2019-06-26T11:01:37.586Z,63.40
2019-06-26T11:04:27.150Z,64.30
2019-06-26T11:07:16.488Z,66.70
2019-06-26T11:10:06.998Z,67.20
2019-06-26T11:12:56.247Z,68.50
2019-06-26T11:15:45.843Z,69.50
2019-06-26T11:18:35.529Z,69.80
2019-06-26T11:21:24.986Z,70.20
2019-06-26T11:24:14.100Z,69.70
2019-06-26T11:27:02.926Z,69.50
2019-06-26T11:29:51.931Z,68.90
2019-06-26T11:32:41.554Z,68.60
2019-06-26T11:35:31.757Z,68.40
2019-06-26T11:38:20.720Z,68.10
2019-06-26T11:41:10.730Z,68.80
2019-06-26T11:44:00.035Z,67.60
2019-06-26T11:46:50.162Z,66.20
2019-06-26T11:49:39.366Z,64.80
2019-06-26T11:52:28.902Z,66.20
2019-06-26T11:55:19.174Z,64.60
2019-06-26T11:58:08.598Z,64.60
2019-06-26T12:00:57.625Z,62.80
2019-06-26T12:03:46.780Z,64.70
2019-06-26T12:06:36.067Z,63.10
2019-06-26T12:09:25.111Z,63.30
2019-06-26T12:12:14.447Z,63.00
2019-06-26T12:15:04.991Z,59.60
2019-06-26T12:17:54.227Z,58.80
2019-06-26T12:20:43.737Z,60.40
2019-06-26T12:23:33.135Z,60.70
2019-06-26T12:26:22.126Z,62.20
2019-06-26T12:29:11.852Z,60.70
2019-06-26T12:32:01.435Z,59.80
2019-06-26T12:34:50.386Z,58.90
2019-06-26T12:37:40.052Z,60.00
2019-06-26T12:40:31.255Z,59.60
2019-06-26T12:43:19.705Z,60.00
2019-06-26T12:46:08.666Z,59.50
2019-06-26T12:48:58.187Z,59.90
2019-06-26T12:51:47.426Z,61.50
2019-06-26T12:54:37.004Z,60.90
2019-06-26T12:57:26.156Z,60.50
2019-06-26T13:00:17.401Z,63.50
2019-06-26T13:03:07.278Z,61.60
2019-06-26T13:05:56.151Z,59.20
2019-06-26T13:08:45.671Z,59.70
2019-06-26T13:11:34.911Z,61.10
2019-06-26T13:14:23.887Z,60.70
2019-06-26T13:17:13.505Z,60.90
2019-06-26T13:20:02.656Z,62.80
2019-06-26T13:22:52.048Z,62.70
2019-06-26T13:25:41.442Z,60.70
2019-06-26T13:28:31.229Z,58.20
2019-06-26T13:31:20.524Z,57.60
2019-06-26T13:34:10.175Z,58.90
2019-06-26T13:36:59.040Z,59.80
2019-06-26T13:39:48.696Z,61.80
2019-06-26T13:42:37.947Z,64.20
2019-06-26T13:45:27.325Z,64.50
2019-06-26T13:48:16.420Z,64.10
2019-06-26T13:51:09.673Z,65.80
2019-06-26T13:53:57.022Z,66.00
2019-06-26T13:56:46.967Z,65.80
2019-06-26T13:59:35.758Z,65.50
2019-06-26T14:02:24.670Z,66.00
2019-06-26T14:05:14.200Z,66.00
2019-06-26T14:08:03.070Z,64.50
2019-06-26T14:10:52.521Z,65.20
2019-06-26T14:13:42.129Z,65.00
2019-06-26T14:16:31.891Z,65.70
2019-06-26T14:19:20.841Z,66.30
2019-06-26T14:22:12.961Z,66.20
2019-06-26T14:25:00.936Z,66.60
2019-06-26T14:27:50.452Z,64.70
2019-06-26T14:30:39.864Z,64.80
2019-06-26T14:33:28.670Z,64.30
2019-06-26T14:36:17.774Z,63.70
2019-06-26T14:39:08.435Z,64.30
2019-06-26T14:41:57.922Z,64.70
2019-06-26T14:44:47.361Z,66.50
2019-06-26T14:47:36.022Z,67.30
2019-06-26T14:50:25.719Z,67.40
2019-06-26T14:53:14.651Z,67.60
2019-06-26T14:56:03.803Z,67.90
2019-06-26T14:58:53.263Z,69.50
2019-06-26T15:01:42.358Z,70.10
2019-06-26T15:04:31.510Z,71.50
2019-06-26T15:07:20.809Z,72.80
2019-06-26T15:10:10.855Z,72.60
2019-06-26T15:13:00.446Z,73.00
2019-06-26T15:15:49.949Z,72.60
2019-06-26T15:18:39.288Z,72.60
2019-06-26T15:21:27.999Z,71.30
2019-06-26T15:24:17.047Z,71.20
2019-06-26T15:27:05.807Z,71.30
2019-06-26T15:29:55.534Z,71.60
2019-06-26T15:32:44.598Z,71.30
2019-06-26T15:35:35.538Z,71.70
2019-06-26T15:38:25.008Z,71.60
2019-06-26T15:41:13.778Z,71.10
2019-06-26T15:44:02.784Z,71.00
2019-06-26T15:46:52.027Z,70.60
2019-06-26T15:49:41.179Z,70.70
2019-06-26T15:52:31.585Z,70.70
2019-06-26T15:55:21.097Z,69.80
2019-06-26T15:58:10.927Z,70.10
2019-06-26T16:00:59.629Z,69.60
2019-06-26T16:03:48.371Z,68.10
2019-06-26T16:06:37.624Z,68.10
2019-06-26T16:09:26.633Z,68.60
2019-06-26T16:12:15.487Z,66.70
2019-06-26T16:15:04.984Z,67.10
2019-06-26T16:18:19.267Z,65.10
2019-06-26T16:21:08.438Z,65.20
2019-06-26T16:23:57.853Z,66.20
2019-06-26T16:26:46.936Z,65.20
2019-06-26T16:29:36.057Z,65.70
2019-06-26T16:32:25.228Z,65.20
2019-06-26T16:35:14.932Z,66.50
2019-06-26T16:38:03.803Z,67.90
2019-06-26T16:40:52.799Z,69.30
2019-06-26T16:43:42.397Z,70.60
2019-06-26T16:46:31.809Z,71.00
2019-06-26T16:49:20.553Z,71.50
2019-06-26T16:52:09.749Z,72.40
2019-06-26T16:54:59.166Z,72.90
2019-06-26T16:57:48.479Z,72.70
2019-06-26T17:00:37.982Z,72.70
2019-06-26T17:03:26.936Z,72.20
2019-06-26T17:06:16.394Z,72.20
2019-06-26T17:09:08.395Z,73.20
2019-06-26T17:11:57.129Z,74.30
2019-06-26T17:14:47.179Z,75.30
2019-06-26T17:17:36.641Z,75.90
2019-06-26T17:20:25.662Z,77.00
2019-06-26T17:23:15.109Z,78.00
2019-06-26T17:26:04.343Z,78.10
2019-06-26T17:28:54.177Z,78.60
2019-06-26T17:31:43.205Z,79.20
2019-06-26T17:34:32.832Z,80.10
2019-06-26T17:37:21.851Z,80.70
2019-06-26T17:40:11.774Z,81.00
2019-06-26T17:43:11.929Z,81.20
2019-06-26T17:45:51.894Z,81.50
2019-06-26T17:48:41.266Z,82.10
2019-06-26T17:51:30.368Z,82.90
2019-06-26T17:54:19.009Z,83.10
2019-06-26T17:57:07.908Z,83.60
2019-06-26T17:59:56.787Z,84.40
2019-06-26T18:02:45.836Z,85.00
2019-06-26T18:05:35.539Z,85.50
2019-06-26T18:08:25.214Z,85.90
2019-06-26T18:11:14.756Z,86.40
2019-06-26T18:14:03.886Z,87.50
2019-06-26T18:16:53.209Z,88.00
2019-06-26T18:19:42.855Z,88.50
2019-06-26T18:22:31.827Z,88.90
2019-06-26T18:25:21.009Z,90.00
2019-06-26T18:28:09.760Z,90.20
2019-06-26T18:30:59.080Z,90.60
2019-06-26T18:33:48.658Z,90.90
2019-06-26T18:36:38.173Z,91.30
2019-06-26T18:39:27.712Z,91.50
2019-06-26T18:42:18.074Z,91.80
2019-06-26T18:45:07.606Z,92.20
2019-06-26T18:47:56.568Z,92.60
2019-06-26T18:50:45.509Z,92.80
2019-06-26T18:53:35.014Z,93.10
2019-06-26T18:56:23.960Z,93.50
2019-06-26T18:59:13.208Z,93.90
2019-06-26T19:02:02.331Z,94.10
2019-06-26T19:04:54.097Z,94.40
2019-06-26T19:07:42.676Z,94.90
2019-06-26T19:10:31.442Z,95.30
2019-06-26T19:13:20.877Z,96.00
2019-06-26T19:16:10.770Z,96.40
2019-06-26T19:18:59.646Z,96.60
2019-06-26T19:21:48.517Z,96.70
2019-06-26T19:24:38.179Z,96.60
2019-06-26T19:27:27.853Z,95.80
2019-06-26T19:30:17.802Z,95.60
2019-06-26T19:33:07.132Z,95.60
2019-06-26T19:35:56.290Z,95.90
2019-06-26T19:38:45.559Z,96.20
2019-06-26T19:41:35.043Z,96.40
2019-06-26T19:44:24.325Z,96.70
2019-06-26T19:47:13.861Z,96.90
2019-06-26T19:50:03.461Z,97.20
2019-06-26T19:52:53.139Z,97.40
2019-06-26T19:55:42.241Z,97.80
2019-06-26T19:58:31.247Z,98.10
2019-06-26T20:01:20.118Z,98.40
2019-06-26T20:04:09.523Z,98.90
2019-06-26T20:06:59.012Z,99.40
2019-06-26T20:09:47.873Z,99.80
2019-06-26T20:12:36.814Z,99.90
2019-06-26T20:15:25.691Z,99.90
2019-06-26T20:18:14.861Z,99.90
2019-06-26T20:21:04.210Z,99.90
2019-06-26T20:23:53.565Z,99.90
2019-06-26T20:26:42.557Z,99.90
2019-06-26T20:29:32.494Z,99.90
2019-06-26T20:32:21.888Z,99.90
2019-06-26T20:35:10.773Z,99.90
2019-06-26T20:38:00.210Z,99.90
2019-06-26T20:40:49.962Z,99.90
2019-06-26T20:43:39.124Z,99.90
2019-06-26T20:46:28.221Z,99.90
2019-06-26T20:49:17.077Z,99.90
2019-06-26T20:52:06.612Z,99.90
2019-06-26T20:55:00.996Z,99.90
2019-06-26T20:57:46.678Z,99.90
2019-06-26T21:00:36.197Z,99.90
2019-06-26T21:03:25.557Z,99.90
2019-06-26T21:06:15.171Z,99.90
2019-06-26T21:09:05.318Z,99.90
2019-06-26T21:11:54.547Z,99.90
2019-06-26T21:14:43.998Z,99.90
2019-06-26T21:17:33.795Z,99.90
2019-06-26T21:20:23.017Z,99.90
2019-06-26T21:23:18.372Z,99.90
2019-06-26T21:26:03.379Z,99.90
2019-06-26T21:28:52.571Z,99.90
2019-06-26T21:31:42.440Z,99.90
2019-06-26T21:34:31.723Z,99.90
2019-06-26T21:37:20.978Z,99.90
2019-06-26T21:40:10.410Z,99.90
2019-06-26T21:42:59.289Z,99.90
2019-06-26T21:45:48.919Z,99.90
2019-06-26T21:48:38.322Z,99.90
2019-06-26T21:51:27.557Z,99.90
2019-06-26T21:54:17.544Z,99.90
2019-06-26T21:57:09.297Z,99.90
2019-06-26T21:59:58.173Z,99.90
2019-06-26T22:02:47.431Z,99.90
2019-06-26T22:05:36.281Z,99.90
2019-06-26T22:08:25.603Z,99.90
2019-06-26T22:11:14.863Z,99.90
2019-06-26T22:14:04.122Z,99.90
2019-06-26T22:16:53.100Z,99.90
2019-06-26T22:19:42.046Z,99.90
2019-06-26T22:22:31.851Z,99.90
2019-06-26T22:25:20.823Z,99.90
2019-06-26T22:28:10.479Z,99.90
2019-06-26T22:30:59.924Z,99.90
2019-06-26T22:33:48.974Z,99.90
2019-06-26T22:36:38.576Z,99.90
2019-06-26T22:39:27.359Z,99.90
2019-06-26T22:42:15.961Z,99.90
2019-06-26T22:45:05.521Z,99.90
2019-06-26T22:47:54.722Z,99.90
2019-06-26T22:50:43.653Z,99.90
2019-06-26T22:53:32.643Z,99.90
2019-06-26T22:56:21.159Z,99.90
2019-06-26T22:59:09.993Z,99.90
2019-06-26T23:01:59.581Z,99.90
2019-06-26T23:04:48.899Z,99.90
2019-06-26T23:07:38.455Z,99.90
2019-06-26T23:10:27.902Z,99.90
2019-06-26T23:13:17.635Z,99.90
2019-06-26T23:16:07.007Z,99.90
2019-06-26T23:18:55.816Z,99.90
2019-06-26T23:21:45.248Z,99.90
2019-06-26T23:24:34.037Z,99.90
2019-06-26T23:27:23.235Z,99.90
2019-06-26T23:30:18.790Z,99.90
2019-06-26T23:33:07.383Z,99.90
2019-06-26T23:35:56.554Z,99.90
2019-06-26T23:38:45.811Z,99.90
2019-06-26T23:41:35.416Z,99.90
2019-06-26T23:44:25.282Z,99.90
2019-06-26T23:47:14.344Z,99.90
2019-06-26T23:50:03.477Z,99.90
2019-06-26T23:52:52.875Z,99.90
2019-06-26T23:55:41.942Z,99.90
2019-06-26T23:58:31.362Z,99.90
